Time;durP1;ratioP1;P1;durP2;ratioP2;P2;SDS_P1;SDS_P2;PMS_P1;PMS_P2;Temp;Humidity;BMP_temperature;BMP_pressure;BME280_temperature;BME280_humidity;BME280_pressure;Samples;Min_cycle;Max_cycle;Signal;HPM_P1;HPM_P2
2023/05/12 00:03:07;;;;;;;8.35;4.32;;;10.50;99.90;;;;;;4583495;22;20044;-64
2023/05/12 00:05:34;;;;;;;8.05;4.65;;;10.50;99.90;;;;;;5064504;28;20131;-64
2023/05/12 00:08:00;;;;;;;12.93;5.05;;;10.50;99.90;;;;;;5068106;28;20036;-64
2023/05/12 00:10:27;;;;;;;9.05;4.20;;;10.50;99.90;;;;;;5069348;28;20048;-65
2023/05/12 00:12:54;;;;;;;11.02;4.55;;;10.50;99.90;;;;;;5068832;28;20041;-65
2023/05/12 00:15:21;;;;;;;7.03;4.18;;;10.50;99.90;;;;;;5078620;28;20144;-64
2023/05/12 00:17:48;;;;;;;8.88;4.10;;;10.50;99.90;;;;;;5068441;28;20098;-65
2023/05/12 00:20:15;;;;;;;7.85;4.18;;;10.60;99.90;;;;;;5068605;28;20080;-65
2023/05/12 00:22:42;;;;;;;9.15;4.40;;;10.60;99.90;;;;;;5068802;28;20060;-64
2023/05/12 00:25:08;;;;;;;10.13;3.88;;;10.60;99.90;;;;;;5068534;28;20074;-64
2023/05/12 00:27:35;;;;;;;8.73;4.57;;;10.60;99.90;;;;;;5069001;28;20078;-65
2023/05/12 00:30:02;;;;;;;9.52;4.70;;;10.50;99.90;;;;;;5068150;28;20041;-65
2023/05/12 00:32:29;;;;;;;7.82;4.57;;;10.40;99.90;;;;;;5068288;28;20510;-65
2023/05/12 00:34:56;;;;;;;7.85;4.68;;;10.40;99.90;;;;;;5068692;28;20052;-65
2023/05/12 00:37:23;;;;;;;6.85;4.43;;;10.30;99.90;;;;;;5059907;28;20131;-65
2023/05/12 00:39:49;;;;;;;8.55;4.60;;;10.30;99.90;;;;;;5064550;28;20050;-65
2023/05/12 00:42:16;;;;;;;8.50;5.28;;;10.30;99.90;;;;;;5066341;28;20044;-64
2023/05/12 00:44:43;;;;;;;6.07;4.25;;;10.20;99.90;;;;;;5068321;28;20057;-64
2023/05/12 00:47:09;;;;;;;14.52;5.03;;;10.20;99.90;;;;;;5055002;28;20044;-64
2023/05/12 00:49:36;;;;;;;7.70;4.22;;;10.20;99.90;;;;;;5068618;28;20048;-68
2023/05/12 00:52:03;;;;;;;8.45;4.00;;;10.20;99.90;;;;;;5064717;28;20052;-64
2023/05/12 00:54:30;;;;;;;9.32;4.88;;;10.20;99.90;;;;;;5068286;28;20075;-65
2023/05/12 00:56:57;;;;;;;6.38;4.25;;;10.20;99.90;;;;;;5063185;28;20045;-65
2023/05/12 00:59:23;;;;;;;7.32;4.20;;;10.20;99.90;;;;;;5054802;28;20082;-65
2023/05/12 01:01:50;;;;;;;9.02;4.32;;;10.20;99.90;;;;;;5067298;28;20101;-65
2023/05/12 01:04:17;;;;;;;11.15;3.90;;;10.10;99.90;;;;;;5056293;28;20067;-65
2023/05/12 01:06:47;;;;;;;6.57;3.88;;;10.00;99.90;;;;;;5068029;28;20084;-65
2023/05/12 01:09:14;;;;;;;8.05;3.72;;;10.00;99.90;;;;;;5068451;28;20051;-65
2023/05/12 01:11:41;;;;;;;6.68;4.00;;;10.00;99.90;;;;;;5060924;28;20059;-64
2023/05/12 01:14:08;;;;;;;9.68;5.32;;;9.90;99.90;;;;;;5068420;28;20048;-65
2023/05/12 01:16:37;;;;;;;10.93;4.53;;;9.90;99.90;;;;;;5068092;28;20455;-64
2023/05/12 01:19:06;;;;;;;6.93;4.38;;;9.90;99.90;;;;;;5046637;28;20120;-65
2023/05/12 01:21:33;;;;;;;12.60;4.18;;;9.90;99.90;;;;;;5058960;28;20049;-65
2023/05/12 01:24:02;;;;;;;6.40;4.45;;;9.90;99.90;;;;;;5067553;28;20049;-64
2023/05/12 01:26:28;;;;;;;6.15;4.20;;;9.90;99.90;;;;;;5055590;28;20159;-65
2023/05/12 01:28:55;;;;;;;6.80;4.03;;;9.90;99.90;;;;;;5066034;28;20502;-66
2023/05/12 01:31:22;;;;;;;6.50;4.38;;;9.90;99.90;;;;;;5045538;28;20044;-65
2023/05/12 01:33:49;;;;;;;6.63;4.03;;;9.90;99.90;;;;;;5069680;28;20052;-65
2023/05/12 01:36:16;;;;;;;8.18;5.20;;;9.90;99.90;;;;;;5064596;28;20093;-65
2023/05/12 01:38:43;;;;;;;8.65;5.65;;;9.90;99.90;;;;;;5066986;28;20128;-65
2023/05/12 01:41:09;;;;;;;6.95;4.35;;;9.90;99.90;;;;;;5067178;28;20407;-66
2023/05/12 01:43:36;;;;;;;18.25;8.52;;;9.90;99.90;;;;;;5067645;28;20052;-66
2023/05/12 01:46:03;;;;;;;23.55;15.25;;;9.90;99.90;;;;;;5067990;28;20426;-66
2023/05/12 01:48:30;;;;;;;20.02;12.02;;;10.10;99.90;;;;;;5059036;28;20048;-67
2023/05/12 01:50:59;;;;;;;24.27;13.85;;;10.20;99.90;;;;;;5067722;28;20041;-65
2023/05/12 01:53:26;;;;;;;21.05;12.80;;;10.40;99.90;;;;;;5067468;28;20080;-66
2023/05/12 01:55:52;;;;;;;22.88;14.38;;;10.50;99.90;;;;;;5066985;28;20086;-65
2023/05/12 01:58:19;;;;;;;25.08;14.90;;;10.60;99.90;;;;;;5066726;28;20045;-63
2023/05/12 02:00:46;;;;;;;24.95;15.25;;;10.80;99.90;;;;;;5067388;28;20677;-65
2023/05/12 02:03:13;;;;;;;24.75;16.20;;;10.90;99.90;;;;;;5066903;28;20075;-66
2023/05/12 02:05:40;;;;;;;29.20;15.93;;;10.90;99.90;;;;;;5061102;28;20494;-66
2023/05/12 02:08:06;;;;;;;26.42;17.02;;;11.00;99.90;;;;;;5067217;28;21505;-65
2023/05/12 02:10:33;;;;;;;26.08;16.83;;;11.20;99.90;;;;;;5067580;28;20049;-65
2023/05/12 02:13:00;;;;;;;27.63;18.48;;;11.20;99.90;;;;;;5067266;28;20044;-65
2023/05/12 02:15:27;;;;;;;28.58;17.83;;;11.30;99.90;;;;;;5068220;28;20041;-64
2023/05/12 02:17:54;;;;;;;28.80;18.58;;;11.30;99.90;;;;;;5071711;28;20465;-66
2023/05/12 02:20:20;;;;;;;32.63;19.67;;;11.30;99.90;;;;;;5070613;28;20507;-65
2023/05/12 02:22:47;;;;;;;35.17;20.58;;;11.40;99.90;;;;;;5068645;28;20083;-64
2023/05/12 02:25:14;;;;;;;39.33;21.77;;;11.40;99.90;;;;;;5066775;28;20133;-65
2023/05/12 02:27:43;;;;;;;40.70;21.85;;;11.40;99.90;;;;;;5050716;28;20479;-65
2023/05/12 02:30:10;;;;;;;45.08;22.88;;;11.40;99.90;;;;;;5054718;28;20055;-64
2023/05/12 02:32:37;;;;;;;36.72;23.38;;;11.40;99.90;;;;;;5066829;28;20076;-65
2023/05/12 02:35:04;;;;;;;39.45;22.60;;;11.50;99.90;;;;;;5066942;28;20101;-66
2023/05/12 02:37:32;;;;;;;37.50;23.30;;;11.50;99.90;;;;;;5064245;28;20087;-66
2023/05/12 02:39:58;;;;;;;33.90;21.75;;;11.50;99.90;;;;;;5054937;28;20044;-65
2023/05/12 02:42:27;;;;;;;39.60;23.95;;;11.50;99.90;;;;;;5066124;28;20055;-65
2023/05/12 02:44:54;;;;;;;35.70;21.75;;;11.50;99.90;;;;;;5065289;28;20070;-63
2023/05/12 02:47:21;;;;;;;37.58;23.05;;;11.50;99.90;;;;;;5057001;28;20127;-64
2023/05/12 02:49:48;;;;;;;37.90;22.67;;;11.50;99.90;;;;;;5066560;28;20071;-65
2023/05/12 02:52:15;;;;;;;41.17;22.98;;;11.50;99.90;;;;;;5067114;28;20509;-65
2023/05/12 02:54:41;;;;;;;38.15;22.08;;;11.50;99.90;;;;;;5066345;28;20056;-64
2023/05/12 02:57:09;;;;;;;33.88;21.90;;;11.50;99.90;;;;;;5067171;28;20059;-65
2023/05/12 02:59:36;;;;;;;33.42;20.42;;;11.50;99.90;;;;;;5066711;28;20049;-65
2023/05/12 03:02:04;;;;;;;28.90;19.85;;;11.50;99.90;;;;;;5066561;28;20515;-65
2023/05/12 03:04:31;;;;;;;29.23;18.75;;;11.40;99.90;;;;;;5066753;28;20060;-65
2023/05/12 03:06:58;;;;;;;29.10;18.80;;;11.40;99.90;;;;;;5067277;28;20044;-64
2023/05/12 03:09:25;;;;;;;30.90;18.75;;;11.40;99.90;;;;;;5059560;28;20070;-65
2023/05/12 03:11:52;;;;;;;30.85;18.40;;;11.40;99.90;;;;;;5066530;28;20055;-65
2023/05/12 03:14:18;;;;;;;29.13;18.00;;;11.40;99.90;;;;;;5053615;28;20056;-65
2023/05/12 03:16:45;;;;;;;32.78;20.63;;;11.40;99.90;;;;;;5066573;28;20059;-65
2023/05/12 03:19:12;;;;;;;29.60;17.77;;;11.40;99.90;;;;;;5066594;28;20510;-65
2023/05/12 03:21:38;;;;;;;29.48;17.30;;;11.50;99.90;;;;;;5066565;28;20056;-65
2023/05/12 03:24:05;;;;;;;21.48;14.00;;;11.50;99.90;;;;;;5062208;28;20057;-65
2023/05/12 03:26:32;;;;;;;21.45;12.32;;;11.50;99.90;;;;;;5069810;28;20521;-65
2023/05/12 03:28:59;;;;;;;21.52;12.15;;;11.50;99.90;;;;;;5070298;28;20047;-67
2023/05/12 03:31:26;;;;;;;17.20;11.57;;;11.40;99.90;;;;;;5069796;28;20533;-65
2023/05/12 03:33:52;;;;;;;16.75;10.82;;;11.40;99.90;;;;;;5069519;28;20052;-66
2023/05/12 03:36:19;;;;;;;15.75;11.48;;;11.40;99.90;;;;;;5069553;28;20556;-65
2023/05/12 03:38:46;;;;;;;16.13;10.88;;;11.30;99.90;;;;;;5070205;28;20080;-64
2023/05/12 03:41:13;;;;;;;16.70;11.98;;;11.30;99.90;;;;;;5069962;28;20064;-65
2023/05/12 03:43:39;;;;;;;17.23;12.40;;;11.30;99.90;;;;;;5070012;28;20848;-65
2023/05/12 03:46:06;;;;;;;17.70;12.88;;;11.30;99.90;;;;;;5069832;28;20040;-65
2023/05/12 03:48:33;;;;;;;18.73;12.65;;;11.30;99.90;;;;;;5068281;28;20171;-64
2023/05/12 03:51:00;;;;;;;19.48;11.88;;;11.30;99.90;;;;;;5070220;28;20072;-65
2023/05/12 03:53:27;;;;;;;19.98;13.45;;;11.30;99.90;;;;;;5069792;28;20087;-65
2023/05/12 03:55:53;;;;;;;21.48;14.18;;;11.30;99.90;;;;;;5069506;28;20044;-65
2023/05/12 03:58:24;;;;;;;22.35;14.27;;;11.40;99.90;;;;;;5069185;28;20051;-65
2023/05/12 04:00:51;;;;;;;21.80;14.27;;;11.40;99.90;;;;;;5056699;28;20044;-65
2023/05/12 04:03:18;;;;;;;22.27;13.55;;;11.40;99.90;;;;;;5069192;28;20056;-65
2023/05/12 04:05:45;;;;;;;24.15;13.57;;;11.40;99.90;;;;;;5053376;28;20059;-65
2023/05/12 04:08:11;;;;;;;25.15;13.57;;;11.40;99.90;;;;;;5068539;28;20127;-66
2023/05/12 04:10:39;;;;;;;21.10;12.40;;;11.30;99.90;;;;;;5068745;28;20044;-65
2023/05/12 04:13:06;;;;;;;24.98;14.30;;;11.40;99.90;;;;;;5068794;28;20279;-65
2023/05/12 04:15:34;;;;;;;26.17;14.98;;;11.40;99.90;;;;;;5068924;28;20044;-64
2023/05/12 04:18:02;;;;;;;22.75;12.32;;;11.40;99.90;;;;;;5069459;28;20090;-65
2023/05/12 04:20:29;;;;;;;25.67;14.75;;;11.40;99.90;;;;;;5059487;28;20056;-65
2023/05/12 04:22:55;;;;;;;23.10;12.38;;;11.40;99.90;;;;;;5057796;28;20045;-65
2023/05/12 04:25:22;;;;;;;18.75;11.65;;;11.40;99.90;;;;;;5069446;28;20651;-65
2023/05/12 04:27:49;;;;;;;21.10;11.00;;;11.40;99.90;;;;;;5059871;28;20044;-63
2023/05/12 04:30:16;;;;;;;15.25;10.15;;;11.40;99.90;;;;;;5068674;28;20074;-65
2023/05/12 04:32:43;;;;;;;17.17;9.60;;;11.30;99.90;;;;;;5068619;28;20048;-65
2023/05/12 04:35:09;;;;;;;17.50;9.55;;;11.30;99.90;;;;;;5068077;28;20499;-66
2023/05/12 04:37:36;;;;;;;14.88;9.40;;;11.30;99.90;;;;;;5063245;28;20040;-65
2023/05/12 04:40:04;;;;;;;14.50;10.00;;;11.30;99.90;;;;;;5068490;28;20048;-65
2023/05/12 04:42:31;;;;;;;17.40;9.70;;;11.30;99.90;;;;;;5068107;28;20119;-66
2023/05/12 04:44:57;;;;;;;16.23;9.55;;;11.30;99.90;;;;;;5068477;28;20055;-65
2023/05/12 04:47:24;;;;;;;16.15;9.13;;;11.30;99.90;;;;;;5056469;28;20045;-65
2023/05/12 04:49:51;;;;;;;17.95;10.27;;;11.30;99.90;;;;;;5068974;28;20136;-65
2023/05/12 04:52:21;;;;;;;15.68;9.20;;;11.40;99.90;;;;;;5068810;28;20048;-65
2023/05/12 04:54:50;;;;;;;15.77;9.43;;;11.40;99.90;;;;;;5054712;28;20498;-64
2023/05/12 04:57:17;;;;;;;15.52;9.25;;;11.40;99.90;;;;;;5070438;28;20048;-65
2023/05/12 04:59:44;;;;;;;14.93;9.75;;;11.40;99.90;;;;;;5068429;28;20101;-65
2023/05/12 05:02:10;;;;;;;13.35;8.20;;;11.50;99.90;;;;;;5068262;28;20519;-64
2023/05/12 05:04:37;;;;;;;14.93;8.75;;;11.40;99.90;;;;;;5074230;28;20052;-65
2023/05/12 05:07:04;;;;;;;17.23;7.93;;;11.40;99.90;;;;;;5059345;28;20041;-64
2023/05/12 05:09:31;;;;;;;12.50;7.35;;;11.40;99.90;;;;;;5056430;28;20048;-64
2023/05/12 05:12:00;;;;;;;11.75;8.30;;;11.30;99.90;;;;;;5068727;28;20048;-64
2023/05/12 05:14:27;;;;;;;9.75;6.72;;;11.30;99.90;;;;;;5057390;28;20079;-65
2023/05/12 05:16:53;;;;;;;11.45;7.55;;;11.30;99.90;;;;;;5068260;28;20135;-65
2023/05/12 05:19:20;;;;;;;9.07;6.63;;;11.30;99.90;;;;;;5067724;28;20169;-65
2023/05/12 05:22:07;;;;;;;15.55;7.47;;;11.20;99.90;;;;;;5067246;28;20051;-64
2023/05/12 05:24:34;;;;;;;13.10;7.95;;;11.20;99.90;;;;;;5067824;28;20625;-65
2023/05/12 05:27:01;;;;;;;12.77;8.20;;;11.20;99.90;;;;;;5068262;28;20143;-66
2023/05/12 05:29:27;;;;;;;10.35;7.10;;;11.20;99.90;;;;;;5067057;28;20040;-65
2023/05/12 05:31:54;;;;;;;15.77;8.77;;;11.20;99.90;;;;;;5067685;28;20044;-66
2023/05/12 05:34:21;;;;;;;11.25;7.50;;;11.20;99.90;;;;;;5067439;28;20094;-65
2023/05/12 05:36:48;;;;;;;14.23;8.48;;;11.30;99.90;;;;;;5066029;28;20040;-64
2023/05/12 05:39:14;;;;;;;14.38;8.02;;;11.30;99.90;;;;;;5066949;28;20545;-65
2023/05/12 05:41:41;;;;;;;15.40;9.00;;;11.30;99.90;;;;;;5067291;28;20055;-66
2023/05/12 05:44:08;;;;;;;19.45;9.07;;;11.40;99.90;;;;;;5067413;28;20051;-65
2023/05/12 05:46:35;;;;;;;18.30;9.88;;;11.50;99.90;;;;;;5066809;28;20139;-65
2023/05/12 05:49:01;;;;;;;14.65;8.88;;;11.50;99.90;;;;;;5052589;28;20044;-65
2023/05/12 05:51:28;;;;;;;17.48;9.55;;;11.50;99.90;;;;;;5067025;28;20087;-65
2023/05/12 05:53:55;;;;;;;14.98;9.60;;;11.60;99.90;;;;;;5067577;28;20491;-64
2023/05/12 05:56:22;;;;;;;16.17;9.95;;;11.60;99.90;;;;;;5067580;28;20060;-64
2023/05/12 05:58:48;;;;;;;15.43;8.98;;;11.70;99.90;;;;;;5067483;28;20310;-64
2023/05/12 06:01:15;;;;;;;24.38;10.98;;;11.70;99.90;;;;;;5067262;28;20044;-65
2023/05/12 06:03:42;;;;;;;15.40;9.82;;;11.70;99.90;;;;;;5067415;28;20052;-64
2023/05/12 06:06:09;;;;;;;13.57;10.60;;;11.80;99.90;;;;;;5068757;28;20044;-68
2023/05/12 06:08:36;;;;;;;18.20;10.23;;;11.80;99.90;;;;;;5068338;28;20136;-66
2023/05/12 06:11:03;;;;;;;16.38;9.68;;;11.80;99.90;;;;;;5067584;28;20052;-67
2023/05/12 06:13:30;;;;;;;23.17;11.23;;;12.00;99.90;;;;;;5067639;28;20051;-66
2023/05/12 06:15:57;;;;;;;21.27;9.45;;;12.00;99.90;;;;;;5067363;28;20040;-66
2023/05/12 06:18:23;;;;;;;16.77;10.77;;;12.10;99.90;;;;;;5067167;28;20048;-65
2023/05/12 06:20:50;;;;;;;17.40;9.32;;;12.10;99.90;;;;;;5056740;28;20449;-66
2023/05/12 06:23:17;;;;;;;18.48;9.60;;;12.10;99.90;;;;;;5066948;28;20518;-65
2023/05/12 06:25:43;;;;;;;21.42;10.15;;;12.20;99.90;;;;;;5053566;28;20047;-65
2023/05/12 06:28:10;;;;;;;13.95;8.45;;;12.20;99.90;;;;;;5075659;28;20064;-66
2023/05/12 06:30:38;;;;;;;15.35;9.13;;;12.20;99.90;;;;;;5075267;28;20123;-62
2023/05/12 06:33:04;;;;;;;16.63;9.15;;;12.30;99.90;;;;;;5055838;28;20037;-62
2023/05/12 06:35:31;;;;;;;17.45;9.32;;;12.30;99.90;;;;;;5073995;28;20463;-63
2023/05/12 06:37:58;;;;;;;14.13;8.20;;;12.40;99.90;;;;;;5075626;28;20126;-64
2023/05/12 06:40:25;;;;;;;12.27;7.90;;;12.40;99.90;;;;;;5059106;28;20099;-63
2023/05/12 06:42:51;;;;;;;15.77;7.85;;;12.40;99.90;;;;;;5066693;28;20080;-63
2023/05/12 06:45:18;;;;;;;13.00;8.10;;;12.40;99.90;;;;;;5066625;28;20052;-63
2023/05/12 06:47:46;;;;;;;17.38;8.30;;;12.50;99.90;;;;;;5054786;28;20119;-63
2023/05/12 06:50:14;;;;;;;17.00;7.55;;;12.60;99.90;;;;;;5066447;28;20129;-64
2023/05/12 06:52:41;;;;;;;13.35;8.45;;;12.70;99.90;;;;;;5066227;28;20044;-63
2023/05/12 06:55:08;;;;;;;13.48;7.40;;;12.70;99.90;;;;;;5054083;28;20052;-64
2023/05/12 06:57:35;;;;;;;10.80;5.90;;;12.70;99.90;;;;;;5064678;28;20051;-63
2023/05/12 07:00:03;;;;;;;8.88;5.78;;;12.70;99.90;;;;;;5069331;28;20109;-64
2023/05/12 07:02:30;;;;;;;11.88;6.45;;;12.80;99.90;;;;;;5070030;28;20049;-64
2023/05/12 07:04:57;;;;;;;9.48;5.25;;;12.80;99.90;;;;;;5069787;28;20052;-63
2023/05/12 07:07:24;;;;;;;10.00;5.35;;;12.80;99.90;;;;;;5067768;28;20127;-63
2023/05/12 07:09:51;;;;;;;16.17;6.25;;;12.80;99.90;;;;;;5067781;28;20132;-63
2023/05/12 07:12:17;;;;;;;9.55;5.43;;;12.80;99.90;;;;;;5067722;28;20048;-63
2023/05/12 07:14:44;;;;;;;16.00;5.63;;;13.00;99.90;;;;;;5067790;28;20104;-63
2023/05/12 07:17:11;;;;;;;9.60;5.85;;;13.00;99.90;;;;;;5067562;28;20086;-63
2023/05/12 07:19:39;;;;;;;10.13;4.97;;;13.10;99.90;;;;;;5070682;28;20049;-63
2023/05/12 07:22:05;;;;;;;11.15;5.63;;;13.20;99.90;;;;;;5067954;28;20045;-63
2023/05/12 07:24:32;;;;;;;9.50;5.50;;;13.20;99.90;;;;;;5076498;28;20045;-65
2023/05/12 07:27:01;;;;;;;11.93;5.43;;;13.30;99.90;;;;;;5055724;28;20056;-62
2023/05/12 07:29:28;;;;;;;9.73;4.07;;;13.30;99.90;;;;;;5067398;28;20053;-63
2023/05/12 07:31:55;;;;;;;12.20;4.65;;;13.30;99.90;;;;;;5066687;28;20163;-64
2023/05/12 07:34:21;;;;;;;10.98;4.28;;;13.30;99.90;;;;;;5066791;28;20059;-64
2023/05/12 07:36:48;;;;;;;10.93;4.97;;;13.30;99.90;;;;;;5067376;28;20154;-63
2023/05/12 07:39:18;;;;;;;15.20;5.25;;;13.30;99.90;;;;;;5066913;28;20048;-64
2023/05/12 07:41:45;;;;;;;5.65;3.85;;;13.40;99.90;;;;;;5054931;28;20051;-64
2023/05/12 07:44:11;;;;;;;9.20;3.50;;;13.40;99.90;;;;;;5067187;28;20055;-64
2023/05/12 07:46:38;;;;;;;11.10;3.42;;;13.50;99.90;;;;;;5065811;28;20049;-62
2023/05/12 07:49:06;;;;;;;6.25;2.97;;;13.60;99.90;;;;;;5069377;28;20041;-66
2023/05/12 07:51:32;;;;;;;7.93;3.00;;;13.60;99.90;;;;;;5068952;28;20055;-63
2023/05/12 07:54:00;;;;;;;13.07;3.17;;;13.70;99.90;;;;;;5069439;28;20695;-66
2023/05/12 07:56:27;;;;;;;13.52;5.43;;;13.80;99.90;;;;;;5068806;28;20134;-64
2023/05/12 07:58:53;;;;;;;8.05;2.60;;;13.90;99.90;;;;;;5067988;28;20095;-64
2023/05/12 08:01:20;;;;;;;10.38;2.05;;;14.00;99.90;;;;;;5061092;28;20438;-64
2023/05/12 08:03:47;;;;;;;5.55;2.05;;;13.90;99.90;;;;;;5067181;28;20102;-64
2023/05/12 08:06:14;;;;;;;7.10;2.03;;;13.90;99.90;;;;;;5061070;28;20051;-63
2023/05/12 08:08:41;;;;;;;5.28;1.95;;;13.80;99.90;;;;;;5068953;28;20036;-63
2023/05/12 08:11:08;;;;;;;4.53;2.00;;;13.80;99.90;;;;;;5067231;28;20106;-63
2023/05/12 08:13:37;;;;;;;7.07;2.05;;;13.80;99.90;;;;;;5057003;28;20181;-62
2023/05/12 08:16:05;;;;;;;9.70;2.05;;;13.90;99.90;;;;;;5065304;28;20044;-63
2023/05/12 08:18:31;;;;;;;5.60;2.15;;;13.90;99.90;;;;;;5069221;28;20048;-63
2023/05/12 08:20:58;;;;;;;8.20;2.10;;;14.00;99.90;;;;;;5069152;28;20052;-63
2023/05/12 08:23:25;;;;;;;5.90;2.00;;;14.00;99.90;;;;;;5070079;28;20041;-62
2023/05/12 08:25:52;;;;;;;7.22;2.00;;;14.00;99.90;;;;;;5070116;28;20515;-61
2023/05/12 08:28:18;;;;;;;5.45;2.03;;;14.00;99.90;;;;;;5070608;28;20140;-63
2023/05/12 08:30:45;;;;;;;7.00;1.25;;;14.00;99.90;;;;;;5074277;28;20058;-63
2023/05/12 08:33:12;;;;;;;6.65;1.95;;;14.00;99.90;;;;;;5070524;28;20040;-62
2023/05/12 08:35:39;;;;;;;6.75;1.70;;;14.10;99.90;;;;;;5069883;28;20076;-63
2023/05/12 08:38:06;;;;;;;6.55;1.80;;;14.10;99.90;;;;;;5068681;28;20549;-63
2023/05/12 08:40:37;;;;;;;8.65;1.70;;;14.20;99.90;;;;;;5068529;28;20135;-63
2023/05/12 08:43:10;;;;;;;7.93;2.47;;;14.20;99.90;;;;;;5068713;28;20507;-63
2023/05/12 08:45:37;;;;;;;6.77;2.00;;;14.30;99.90;;;;;;5068114;28;20135;-64
2023/05/12 08:48:04;;;;;;;6.10;1.60;;;14.40;99.90;;;;;;5068646;28;20135;-64
2023/05/12 08:50:31;;;;;;;4.53;2.25;;;14.50;99.90;;;;;;5036825;28;20045;-64
2023/05/12 08:52:58;;;;;;;7.88;1.50;;;14.50;99.90;;;;;;5062983;28;20056;-64
2023/05/12 08:55:25;;;;;;;14.38;2.03;;;14.60;99.90;;;;;;5035806;28;20087;-64
2023/05/12 08:57:58;;;;;;;8.07;2.45;;;14.60;99.90;;;;;;5061480;28;20041;-64
2023/05/12 09:00:25;;;;;;;5.43;1.67;;;14.60;99.90;;;;;;5053682;28;20083;-65
2023/05/12 09:02:52;;;;;;;7.13;1.92;;;14.70;99.90;;;;;;5068156;28;20056;-64
2023/05/12 09:05:21;;;;;;;6.28;1.55;;;14.70;99.90;;;;;;5055632;28;20395;-64
2023/05/12 09:07:48;;;;;;;6.18;1.90;;;14.80;99.90;;;;;;5064508;28;20051;-64
2023/05/12 09:10:16;;;;;;;8.25;1.83;;;14.80;99.90;;;;;;5068260;28;20064;-63
2023/05/12 09:13:23;;;;;;;8.88;1.88;;;14.70;99.90;;;;;;5068064;28;20060;-63
2023/05/12 09:15:52;;;;;;;12.77;1.38;;;14.80;99.90;;;;;;5065216;28;21406;-63
2023/05/12 09:18:18;;;;;;;6.60;1.98;;;14.80;99.90;;;;;;5076571;28;20071;-64
2023/05/12 09:20:46;;;;;;;10.63;1.55;;;14.70;99.90;;;;;;5067573;28;20045;-64
2023/05/12 09:23:17;;;;;;;4.32;1.23;;;14.70;99.90;;;;;;5059354;28;20044;-64
2023/05/12 09:25:45;;;;;;;6.78;1.70;;;14.70;99.90;;;;;;5067827;28;20140;-63
2023/05/12 09:28:12;;;;;;;5.10;1.38;;;14.80;99.90;;;;;;5067353;28;20044;-65
2023/05/12 09:30:41;;;;;;;5.93;1.10;;;14.80;99.90;;;;;;5056636;28;20590;-64
2023/05/12 09:33:09;;;;;;;4.38;1.25;;;14.90;99.90;;;;;;5056838;28;20044;-65
2023/05/12 09:35:44;;;;;;;4.05;1.05;;;15.00;99.90;;;;;;5067660;28;20091;-65
2023/05/12 09:38:12;;;;;;;7.38;1.52;;;15.00;99.90;;;;;;5057699;28;20048;-64
2023/05/12 09:40:39;;;;;;;6.47;1.17;;;15.00;99.90;;;;;;5068222;28;20594;-64
2023/05/12 09:43:06;;;;;;;4.45;1.00;;;15.00;99.90;;;;;;5060109;28;20037;-64
2023/05/12 09:45:34;;;;;;;7.72;1.20;;;15.00;99.90;;;;;;4714988;28;10000196;-64
2023/05/12 09:48:08;;;;;;;4.47;1.08;;;14.90;99.90;;;;;;5066109;28;20089;-64
2023/05/12 09:50:41;;;;;;;6.90;1.38;;;14.80;99.90;;;;;;5068311;28;20049;-63
2023/05/12 09:53:16;;;;;;;8.27;2.03;;;14.90;99.90;;;;;;5069711;28;20048;-63
2023/05/12 09:55:43;;;;;;;5.63;1.45;;;14.80;99.90;;;;;;5067458;28;20098;-63
2023/05/12 09:58:10;;;;;;;6.63;1.90;;;14.70;99.90;;;;;;5067467;28;20501;-63
2023/05/12 10:00:38;;;;;;;4.97;1.50;;;14.60;99.90;;;;;;5070098;28;20576;-63
2023/05/12 10:03:25;;;;;;;2.55;0.90;;;14.50;99.90;;;;;;5050870;28;20055;-64
2023/05/12 10:06:02;;;;;;;4.38;1.25;;;14.40;99.90;;;;;;5053241;28;20052;-64
2023/05/12 10:08:32;;;;;;;4.63;1.30;;;14.20;99.90;;;;;;5067303;28;20513;-63
2023/05/12 10:11:00;;;;;;;3.30;1.45;;;14.20;99.90;;;;;;5067456;28;20053;-63
2023/05/12 10:13:27;;;;;;;4.28;1.33;;;14.10;99.90;;;;;;5063973;28;20068;-64
2023/05/12 10:15:55;;;;;;;5.45;1.00;;;14.00;99.90;;;;;;5065590;28;20066;-62
2023/05/12 10:18:23;;;;;;;7.47;2.13;;;13.90;99.90;;;;;;5066189;28;20578;-64
2023/05/12 10:20:50;;;;;;;2.53;1.10;;;14.00;99.90;;;;;;5070095;28;20071;-63
2023/05/12 10:23:17;;;;;;;8.90;2.75;;;14.00;99.90;;;;;;5066793;28;20231;-63
2023/05/12 10:25:44;;;;;;;4.00;1.30;;;14.00;99.90;;;;;;5066507;28;20522;-63
2023/05/12 10:28:11;;;;;;;4.53;1.20;;;14.00;99.90;;;;;;5077680;28;20076;-64
2023/05/12 10:30:38;;;;;;;4.38;1.40;;;13.90;99.90;;;;;;5066836;28;20132;-63
2023/05/12 10:33:07;;;;;;;3.47;1.33;;;13.90;99.90;;;;;;5058829;28;20074;-64
2023/05/12 10:35:35;;;;;;;9.23;1.45;;;13.80;99.90;;;;;;5042343;28;20787;-64
2023/05/12 10:38:15;;;;;;;8.02;1.40;;;13.70;99.90;;;;;;5058720;28;20046;-64
2023/05/12 10:40:57;;;;;;;9.13;1.50;;;13.60;99.90;;;;;;5068281;28;20130;-64
2023/05/12 10:43:25;;;;;;;5.07;1.65;;;13.60;99.90;;;;;;5068616;28;20045;-62
2023/05/12 10:46:14;;;;;;;9.98;1.73;;;13.50;99.90;;;;;;5068006;28;20056;-65
2023/05/12 10:49:08;;;;;;;5.22;1.63;;;13.40;99.90;;;;;;5057040;28;20136;-64
2023/05/12 10:51:42;;;;;;;4.72;1.73;;;13.40;99.90;;;;;;5061090;28;20131;-65
2023/05/12 10:54:09;;;;;;;5.47;2.10;;;13.40;99.90;;;;;;5067946;28;20855;-63
2023/05/12 10:56:37;;;;;;;5.60;1.35;;;13.40;99.90;;;;;;5068184;28;20041;-63
2023/05/12 10:59:11;;;;;;;6.90;1.45;;;13.40;99.90;;;;;;5068437;28;20437;-63
2023/05/12 11:01:56;;;;;;;5.03;1.15;;;13.30;99.90;;;;;;5064871;28;20688;-64
2023/05/12 11:04:48;;;;;;;4.07;1.15;;;13.20;99.90;;;;;;5054725;28;20064;-63
2023/05/12 11:07:20;;;;;;;2.92;1.20;;;13.10;99.90;;;;;;5060794;28;20048;-64
2023/05/12 11:09:48;;;;;;;7.55;1.38;;;13.00;99.90;;;;;;5063871;28;20143;-64
2023/05/12 11:12:17;;;;;;;5.82;1.52;;;13.00;99.90;;;;;;5055430;28;20083;-63
2023/05/12 11:14:45;;;;;;;7.07;1.98;;;13.00;99.90;;;;;;5066901;28;20048;-65
2023/05/12 11:17:12;;;;;;;4.68;2.00;;;13.00;99.90;;;;;;5067714;28;20098;-63
2023/05/12 11:19:43;;;;;;;4.35;1.42;;;13.00;99.90;;;;;;5068058;28;20503;-65
2023/05/12 11:22:10;;;;;;;5.60;1.20;;;13.00;99.90;;;;;;5054014;28;20475;-63
2023/05/12 11:24:38;;;;;;;2.45;1.02;;;13.00;99.90;;;;;;5067658;28;20099;-63
2023/05/12 11:27:06;;;;;;;3.03;0.90;;;12.90;99.90;;;;;;5056247;28;20139;-63
2023/05/12 11:29:33;;;;;;;4.10;1.35;;;12.90;99.90;;;;;;5067881;28;20279;-64
2023/05/12 11:32:00;;;;;;;6.00;1.35;;;12.80;99.90;;;;;;5067597;28;20477;-63
2023/05/12 11:34:27;;;;;;;5.00;1.10;;;12.80;99.90;;;;;;5054993;28;20060;-62
2023/05/12 11:36:55;;;;;;;4.05;1.00;;;12.70;99.90;;;;;;5059587;28;20067;-65
2023/05/12 11:39:23;;;;;;;5.35;1.30;;;12.70;99.90;;;;;;5071455;28;20056;-64
2023/05/12 11:41:50;;;;;;;6.82;1.70;;;12.70;99.90;;;;;;5067576;28;20086;-64
2023/05/12 11:44:31;;;;;;;4.50;1.50;;;12.70;99.90;;;;;;4713700;28;10000377;-64
2023/05/12 11:47:00;;;;;;;4.72;1.33;;;12.70;99.90;;;;;;5045445;28;20054;-64
2023/05/12 11:49:29;;;;;;;2.78;1.38;;;12.60;99.90;;;;;;5069227;28;20364;-64
2023/05/12 11:52:00;;;;;;;3.00;1.00;;;12.60;99.90;;;;;;5067732;28;20045;-65
2023/05/12 11:54:27;;;;;;;3.58;0.95;;;12.50;99.90;;;;;;5066847;28;20056;-65
2023/05/12 11:56:55;;;;;;;1.70;0.90;;;12.50;99.90;;;;;;5067201;28;20068;-64
2023/05/12 11:59:34;;;;;;;1.90;1.00;;;12.50;99.90;;;;;;5067213;28;20079;-64
2023/05/12 12:02:01;;;;;;;1.85;0.93;;;12.50;99.90;;;;;;5055211;28;20056;-63
2023/05/12 12:04:35;;;;;;;3.80;1.42;;;12.50;99.90;;;;;;5066507;28;20052;-63
2023/05/12 12:07:04;;;;;;;6.25;1.20;;;12.50;99.90;;;;;;5066760;28;20105;-63
2023/05/12 12:09:35;;;;;;;1.25;0.73;;;12.60;99.90;;;;;;5058849;28;20159;-64
2023/05/12 12:12:03;;;;;;;1.80;0.90;;;12.70;99.90;;;;;;5062930;28;20052;-64
2023/05/12 12:14:31;;;;;;;5.40;0.93;;;12.70;99.90;;;;;;5066321;28;20175;-64
2023/05/12 12:16:59;;;;;;;5.20;1.30;;;12.70;99.90;;;;;;5053430;28;20072;-64
2023/05/12 12:19:26;;;;;;;3.00;2.00;;;12.70;99.90;;;;;;5065888;28;20049;-64
2023/05/12 12:21:54;;;;;;;4.60;1.23;;;12.70;99.90;;;;;;5053061;28;20090;-65
2023/05/12 12:24:21;;;;;;;6.90;1.00;;;12.70;99.90;;;;;;5054772;28;20084;-64
2023/05/12 12:26:48;;;;;;;2.05;1.23;;;12.70;99.90;;;;;;5064998;28;20052;-64
2023/05/12 12:29:15;;;;;;;2.85;1.30;;;12.70;99.90;;;;;;5052773;28;20045;-65
2023/05/12 12:31:42;;;;;;;2.58;1.20;;;12.60;99.90;;;;;;5064189;28;20102;-65
2023/05/12 12:34:09;;;;;;;4.53;1.42;;;12.70;99.90;;;;;;5052061;28;20045;-65
2023/05/12 12:36:36;;;;;;;2.08;0.90;;;12.60;99.90;;;;;;5066325;28;20388;-64
2023/05/12 12:39:03;;;;;;;2.35;0.95;;;12.60;99.90;;;;;;5072170;28;20060;-64
2023/05/12 12:41:30;;;;;;;3.60;0.85;;;12.60;99.90;;;;;;5053621;28;20127;-63
2023/05/12 12:43:57;;;;;;;3.35;1.40;;;12.60;99.90;;;;;;5064870;28;20135;-63
2023/05/12 12:46:24;;;;;;;4.22;1.70;;;12.60;99.90;;;;;;5064966;28;20083;-63